createdAt,value
2018-01-08T00:01:06.588Z,5.6
2018-01-08T00:06:06.577Z,5.6
2018-01-08T00:11:06.571Z,5.6
2018-01-08T00:16:06.570Z,5.6
2018-01-08T00:21:06.565Z,5.5
2018-01-08T00:26:06.566Z,5.5
2018-01-08T00:31:06.763Z,5.5
2018-01-08T00:36:06.578Z,5.5
2018-01-08T00:41:06.581Z,5.4
2018-01-08T00:46:06.589Z,5.4
2018-01-08T00:51:06.584Z,5.4
2018-01-08T00:56:06.585Z,5.4
2018-01-08T01:01:06.594Z,5.4
2018-01-08T01:06:06.598Z,5.5
2018-01-08T01:11:06.605Z,5.5
2018-01-08T01:16:06.606Z,5.4
2018-01-08T01:21:06.590Z,5.4
2018-01-08T01:26:06.653Z,5.4
2018-01-08T01:31:06.589Z,5.3
2018-01-08T01:36:06.635Z,5.3
2018-01-08T01:41:06.606Z,5.3
2018-01-08T01:46:06.606Z,5.3
2018-01-08T01:51:06.624Z,5.3
2018-01-08T01:56:06.630Z,5.3
2018-01-08T02:01:06.614Z,5.3
2018-01-08T02:06:06.618Z,5.2
2018-01-08T02:11:06.623Z,5.2
2018-01-08T02:16:06.625Z,5.2
2018-01-08T02:21:06.630Z,5.2
2018-01-08T02:26:06.646Z,5.2
2018-01-08T02:31:06.769Z,5.2
2018-01-08T02:36:06.803Z,5.2
2018-01-08T02:41:06.641Z,5.2
2018-01-08T02:46:06.647Z,5.2
2018-01-08T02:51:06.662Z,5.2
2018-01-08T02:56:06.658Z,5.2
2018-01-08T03:01:06.764Z,5.2
2018-01-08T03:06:06.653Z,5.2
2018-01-08T03:11:06.668Z,5.1
2018-01-08T03:16:06.656Z,5.1
2018-01-08T03:21:06.673Z,5.1
2018-01-08T03:26:06.803Z,5.1
2018-01-08T03:31:06.663Z,5.1
2018-01-08T03:36:06.699Z,5.1
2018-01-08T03:41:06.893Z,5.1
2018-01-08T03:46:06.687Z,5.1
2018-01-08T03:51:06.696Z,5.1
2018-01-08T03:56:06.721Z,5
2018-01-08T04:01:06.681Z,5
2018-01-08T04:06:06.692Z,5.1
2018-01-08T04:11:06.882Z,5
2018-01-08T04:16:06.709Z,5
2018-01-08T04:21:06.702Z,5
2018-01-08T04:26:06.746Z,5
2018-01-08T04:31:07.829Z,5
2018-01-08T04:36:09.172Z,5
2018-01-08T04:41:07.973Z,5
2018-01-08T04:46:07.898Z,5
2018-01-08T04:51:07.842Z,5
2018-01-08T04:56:07.868Z,4.9
2018-01-08T05:01:07.873Z,4.9
2018-01-08T05:06:07.856Z,4.9
2018-01-08T05:11:07.850Z,4.9
2018-01-08T05:16:07.860Z,4.9
2018-01-08T05:21:08.035Z,4.9
2018-01-08T05:26:07.885Z,4.9
2018-01-08T05:31:07.857Z,4.9
2018-01-08T05:36:07.866Z,4.9
2018-01-08T05:41:07.970Z,4.9
2018-01-08T05:46:08.050Z,4.9
2018-01-08T05:51:07.901Z,4.9
2018-01-08T05:56:07.907Z,4.9
2018-01-08T06:01:08.069Z,4.9
2018-01-08T06:06:07.894Z,4.9
2018-01-08T06:11:07.906Z,4.9
2018-01-08T06:16:07.897Z,4.9
2018-01-08T06:21:07.917Z,4.9
2018-01-08T06:26:07.901Z,4.9
2018-01-08T06:31:07.901Z,4.9
2018-01-08T06:36:07.899Z,4.9
2018-01-08T06:41:07.988Z,4.9
2018-01-08T06:46:08.013Z,4.9
2018-01-08T06:51:07.891Z,4.9
2018-01-08T06:56:07.918Z,4.9
2018-01-08T07:01:07.995Z,4.9
2018-01-08T07:06:08.033Z,4.9
2018-01-08T07:11:07.967Z,4.9
2018-01-08T07:16:07.910Z,4.9
2018-01-08T07:21:08.850Z,4.9
2018-01-08T07:26:07.926Z,4.9
2018-01-08T07:31:08.034Z,5
2018-01-08T07:36:07.934Z,4.9
2018-01-08T07:41:07.924Z,4.9
2018-01-08T07:46:08.020Z,5
2018-01-08T07:51:08.017Z,5
2018-01-08T07:56:07.944Z,4.9
2018-01-08T08:01:07.943Z,5
2018-01-08T08:06:07.940Z,5
2018-01-08T08:11:07.963Z,5
2018-01-08T08:16:08.046Z,5
2018-01-08T08:21:07.995Z,5
2018-01-08T08:26:07.947Z,5
2018-01-08T08:31:08.032Z,5
2018-01-08T08:36:07.972Z,5
2018-01-08T08:41:07.969Z,5.1
2018-01-08T08:46:08.049Z,5.1
2018-01-08T08:51:08.058Z,5.1
2018-01-08T08:56:07.964Z,5.2
2018-01-08T09:01:08.102Z,5.2
2018-01-08T09:06:08.044Z,5.2
2018-01-08T09:11:07.980Z,5.2
2018-01-08T09:16:08.034Z,5.1
2018-01-08T09:21:08.142Z,5.1
2018-01-08T09:26:07.971Z,5.1
2018-01-08T09:31:07.978Z,5.1
2018-01-08T09:36:08.023Z,5.1
2018-01-08T09:41:07.986Z,5.1
2018-01-08T09:46:07.991Z,5.1
2018-01-08T09:51:08.000Z,5.1
2018-01-08T09:56:08.070Z,5.1
2018-01-08T10:01:08.197Z,5.2
2018-01-08T10:06:08.108Z,5.1
2018-01-08T10:11:08.025Z,5.2
2018-01-08T10:16:08.286Z,5.2
2018-01-08T10:21:08.104Z,5.2
2018-01-08T10:26:08.034Z,5.2
2018-01-08T10:31:08.083Z,5.2
2018-01-08T10:36:08.423Z,5.2
2018-01-08T10:41:08.222Z,5.2
2018-01-08T10:46:08.050Z,5.2
2018-01-08T10:51:08.187Z,5.2
2018-01-08T10:56:08.026Z,5.2
2018-01-08T11:01:08.027Z,5.2
2018-01-08T11:06:08.042Z,5.3
2018-01-08T11:11:08.042Z,5.3
2018-01-08T11:16:08.120Z,5.3
2018-01-08T11:21:08.147Z,5.4
2018-01-08T11:26:08.051Z,5.4
2018-01-08T11:31:08.113Z,5.4
2018-01-08T11:36:08.146Z,5.4
2018-01-08T11:41:08.049Z,5.3
2018-01-08T11:46:08.062Z,5.3
2018-01-08T11:51:08.069Z,5.3
2018-01-08T11:56:08.168Z,5.3
2018-01-08T12:01:08.210Z,5.3
2018-01-08T12:06:08.137Z,5.2
2018-01-08T12:11:08.088Z,5.3
2018-01-08T12:16:08.208Z,5.2
2018-01-08T12:21:08.239Z,5.2
2018-01-08T12:26:08.124Z,5.2
2018-01-08T12:31:08.181Z,5.2
2018-01-08T12:36:08.238Z,5.3
2018-01-08T12:41:08.112Z,5.2
2018-01-08T12:46:08.140Z,5.1
2018-01-08T12:51:08.189Z,5.2
2018-01-08T12:56:08.116Z,5.1
2018-01-08T13:01:08.176Z,5.1
2018-01-08T13:06:08.175Z,5.1
2018-01-08T13:11:08.107Z,5.1
2018-01-08T13:16:08.101Z,5
2018-01-08T13:21:08.282Z,5
2018-01-08T13:26:08.124Z,5
2018-01-08T13:31:08.226Z,5
2018-01-08T13:36:08.127Z,5
2018-01-08T13:41:08.104Z,4.9
2018-01-08T13:46:08.234Z,4.9
2018-01-08T13:51:08.241Z,4.9
2018-01-08T13:56:08.384Z,4.8
2018-01-08T14:01:08.124Z,4.8
2018-01-08T14:06:08.228Z,4.8
2018-01-08T14:11:08.132Z,4.8
2018-01-08T14:16:08.424Z,4.8
2018-01-08T14:21:08.148Z,4.8
2018-01-08T14:26:08.135Z,4.8
2018-01-08T14:31:08.294Z,4.8
2018-01-08T14:36:08.149Z,4.8
2018-01-08T14:41:08.153Z,4.8
2018-01-08T14:46:08.134Z,4.7
2018-01-08T14:51:08.267Z,4.7
2018-01-08T14:56:08.667Z,4.7
2018-01-08T15:01:08.328Z,4.7
2018-01-08T15:06:08.148Z,4.7
2018-01-08T15:11:08.193Z,4.7
2018-01-08T15:16:08.330Z,4.6
2018-01-08T15:21:08.449Z,4.6
2018-01-08T15:26:08.286Z,4.6
2018-01-08T15:31:08.599Z,4.6
2018-01-08T15:36:08.136Z,4.5
2018-01-08T15:41:08.387Z,4.5
2018-01-08T15:46:08.233Z,4.5
2018-01-08T15:51:08.143Z,4.5
2018-01-08T15:56:08.144Z,4.5
2018-01-08T16:01:08.336Z,4.5
2018-01-08T16:06:08.304Z,4.5
2018-01-08T16:11:08.156Z,4.5
2018-01-08T16:16:08.265Z,4.5
2018-01-08T16:21:08.320Z,4.5
2018-01-08T16:26:08.391Z,4.5
2018-01-08T16:31:08.176Z,4.5
2018-01-08T16:36:08.163Z,4.4
2018-01-08T16:41:08.201Z,4.4
2018-01-08T16:46:08.182Z,4.4
2018-01-08T16:51:08.213Z,4.4
2018-01-08T16:56:08.209Z,4.4
2018-01-08T17:01:08.234Z,4.4
2018-01-08T17:06:08.249Z,4.4
2018-01-08T17:11:08.200Z,4.4
2018-01-08T17:16:08.257Z,4.4
2018-01-08T17:21:08.204Z,4.4
2018-01-08T17:26:08.277Z,4.4
2018-01-08T17:31:08.297Z,4.4
2018-01-08T17:36:08.226Z,4.4
2018-01-08T17:41:08.296Z,4.4
2018-01-08T17:46:08.614Z,4.3
2018-01-08T17:51:08.243Z,4.3
2018-01-08T17:56:08.959Z,4.3
2018-01-08T18:01:08.261Z,4.2
2018-01-08T18:06:08.299Z,4.2
2018-01-08T18:11:08.391Z,4.2
2018-01-08T18:16:08.298Z,4.2
2018-01-08T18:21:08.274Z,4.2
2018-01-08T18:26:08.317Z,4.2
2018-01-08T18:31:08.472Z,4.2
2018-01-08T18:36:08.270Z,4.2
2018-01-08T18:41:08.448Z,4.2
2018-01-08T18:46:08.548Z,4.2
2018-01-08T18:51:08.425Z,4.2
2018-01-08T18:56:08.256Z,4.2
2018-01-08T19:01:08.286Z,4.2
2018-01-08T19:06:08.503Z,4.2
2018-01-08T19:11:08.290Z,4.2
2018-01-08T19:16:08.881Z,4.2
2018-01-08T19:21:08.292Z,4.2
2018-01-08T19:26:08.527Z,4.2
2018-01-08T19:31:08.289Z,4.2
2018-01-08T19:36:11.377Z,4.2
2018-01-08T19:41:12.016Z,4.2
2018-01-08T19:46:13.247Z,4.2
2018-01-08T19:51:11.936Z,4.1
2018-01-08T19:56:12.063Z,4.1
2018-01-08T20:01:12.342Z,4.1
2018-01-08T20:06:11.997Z,4.1
2018-01-08T20:11:12.088Z,4.1
2018-01-08T20:16:12.216Z,4.1
2018-01-08T20:21:12.006Z,4.1
2018-01-08T20:26:12.033Z,4.1
2018-01-08T20:31:12.001Z,4.1
2018-01-08T20:36:11.983Z,4.1
2018-01-08T20:41:11.994Z,4.1
2018-01-08T20:46:12.329Z,4.1
2018-01-08T20:51:12.100Z,4.1
2018-01-08T20:56:12.426Z,4.1
2018-01-08T21:01:12.421Z,4.1
2018-01-08T21:06:12.398Z,4.1
2018-01-08T21:11:12.200Z,4.1
2018-01-08T21:16:12.305Z,4.2
2018-01-08T21:21:11.985Z,4.2
2018-01-08T21:26:12.175Z,4.1
2018-01-08T21:31:12.260Z,4.2
2018-01-08T21:36:12.360Z,4.1
2018-01-08T21:41:12.158Z,4.2
2018-01-08T21:46:14.750Z,4.2
2018-01-08T21:51:12.042Z,4.1
2018-01-08T21:56:12.025Z,4.1
2018-01-08T22:01:12.478Z,4.1
2018-01-08T22:06:12.021Z,4.1
2018-01-08T22:11:12.098Z,4.1
2018-01-08T22:16:12.242Z,4.1
2018-01-08T22:21:12.042Z,4.1
2018-01-08T22:26:12.102Z,4.1
2018-01-08T22:31:12.100Z,4.1
2018-01-08T22:36:12.125Z,4.1
2018-01-08T22:41:12.237Z,4.1
2018-01-08T22:46:12.032Z,4.1
2018-01-08T22:51:12.243Z,4.1
2018-01-08T22:56:12.072Z,4.1
2018-01-08T23:01:12.195Z,4.1
2018-01-08T23:06:12.224Z,4.1
2018-01-08T23:11:12.153Z,4.2
2018-01-08T23:16:12.210Z,4.2
2018-01-08T23:21:12.207Z,4.2
2018-01-08T23:26:12.143Z,4.2
2018-01-08T23:31:12.350Z,4.2
2018-01-08T23:36:12.043Z,4.2
2018-01-08T23:41:12.230Z,4.2
2018-01-08T23:46:12.132Z,4.2
2018-01-08T23:51:12.093Z,4.2
2018-01-08T23:56:12.056Z,4.2
